createdAt,value
2019-06-15T00:01:49.501Z,16.80
2019-06-15T00:04:18.836Z,16.90
2019-06-15T00:06:48.191Z,16.90
2019-06-15T00:09:17.523Z,17.00
2019-06-15T00:11:46.943Z,17.10
2019-06-15T00:14:16.218Z,17.20
2019-06-15T00:16:45.584Z,17.20
2019-06-15T00:19:14.915Z,17.10
2019-06-15T00:21:44.315Z,17.10
2019-06-15T00:24:13.652Z,17.10
2019-06-15T00:26:43.010Z,17.10
2019-06-15T00:29:12.359Z,17.10
2019-06-15T00:31:41.713Z,17.10
2019-06-15T00:34:11.061Z,17.10
2019-06-15T00:36:40.413Z,17.10
2019-06-15T00:39:09.847Z,17.20
2019-06-15T00:41:39.210Z,17.30
2019-06-15T00:44:08.547Z,17.30
2019-06-15T00:46:37.904Z,17.30
2019-06-15T00:49:07.240Z,17.30
2019-06-15T00:51:36.599Z,17.30
2019-06-15T00:54:05.968Z,17.30
2019-06-15T00:56:38.059Z,17.30
2019-06-15T00:59:07.395Z,17.40
2019-06-15T01:01:36.776Z,17.30
2019-06-15T01:04:06.121Z,17.30
2019-06-15T01:06:35.462Z,17.30
2019-06-15T01:09:06.376Z,17.20
2019-06-15T01:11:35.956Z,17.20
2019-06-15T01:14:05.516Z,17.20
2019-06-15T01:16:34.800Z,17.20
2019-06-15T01:19:04.363Z,17.20
2019-06-15T01:21:33.715Z,17.20
2019-06-15T01:24:03.102Z,17.20
2019-06-15T01:26:32.441Z,17.30
2019-06-15T01:29:01.793Z,17.20
2019-06-15T01:31:31.153Z,17.20
2019-06-15T01:34:00.512Z,17.10
2019-06-15T01:36:29.856Z,17.10
2019-06-15T01:38:59.218Z,17.10
2019-06-15T01:41:28.571Z,17.20
2019-06-15T01:43:57.962Z,17.30
2019-06-15T01:46:27.376Z,17.50
2019-06-15T01:48:56.719Z,17.50
2019-06-15T01:51:26.318Z,17.50
2019-06-15T01:53:55.644Z,17.50
2019-06-15T01:56:25.007Z,17.40
2019-06-15T01:58:54.348Z,17.40
2019-06-15T02:01:23.732Z,17.40
2019-06-15T02:03:53.064Z,17.40
2019-06-15T02:06:22.423Z,17.50
2019-06-15T02:08:51.693Z,17.50
2019-06-15T02:11:21.031Z,17.50
2019-06-15T02:13:50.375Z,17.60
2019-06-15T02:16:19.728Z,17.60
2019-06-15T02:18:49.155Z,17.70
2019-06-15T02:21:18.522Z,17.70
2019-06-15T02:23:48.077Z,17.70
2019-06-15T02:26:17.413Z,17.60
2019-06-15T02:28:46.752Z,17.60
2019-06-15T02:31:16.111Z,17.80
2019-06-15T02:33:45.457Z,18.00
2019-06-15T02:36:15.047Z,18.20
2019-06-15T02:38:44.368Z,18.30
2019-06-15T02:41:13.724Z,18.50
2019-06-15T02:43:43.076Z,18.70
2019-06-15T02:46:12.528Z,18.80
2019-06-15T02:48:41.863Z,18.80
2019-06-15T02:51:11.234Z,18.80
2019-06-15T02:53:40.567Z,18.80
2019-06-15T02:56:09.915Z,18.80
2019-06-15T02:58:39.274Z,18.70
2019-06-15T03:01:10.052Z,18.70
2019-06-15T03:03:39.413Z,18.60
2019-06-15T03:06:08.754Z,18.40
2019-06-15T03:09:01.843Z,18.20
2019-06-15T03:11:32.171Z,18.10
2019-06-15T03:14:03.111Z,18.10
2019-06-15T03:16:32.515Z,18.00
2019-06-15T03:19:01.953Z,18.00
2019-06-15T03:21:31.345Z,18.00
2019-06-15T03:24:00.748Z,17.90
2019-06-15T03:26:30.136Z,17.80
2019-06-15T03:28:59.516Z,17.80
2019-06-15T03:31:28.918Z,17.80
2019-06-15T03:33:58.288Z,17.80
2019-06-15T03:36:27.684Z,17.80
2019-06-15T03:38:57.068Z,17.70
2019-06-15T03:41:26.462Z,17.60
2019-06-15T03:43:55.848Z,17.50
2019-06-15T03:46:25.227Z,17.50
2019-06-15T03:48:54.639Z,17.60
2019-06-15T03:51:24.020Z,17.50
2019-06-15T03:53:53.430Z,17.60
2019-06-15T03:56:22.825Z,17.60
2019-06-15T03:58:52.216Z,17.70
2019-06-15T04:01:30.640Z,17.70
2019-06-15T04:04:00.093Z,17.70
2019-06-15T04:06:29.476Z,17.60
2019-06-15T04:08:58.877Z,17.50
2019-06-15T04:11:28.270Z,17.40
2019-06-15T04:13:57.673Z,17.50
2019-06-15T04:16:27.065Z,17.60
2019-06-15T04:18:56.478Z,17.70
2019-06-15T04:21:25.856Z,17.90
2019-06-15T04:23:55.252Z,18.00
2019-06-15T04:26:35.548Z,18.10
2019-06-15T04:28:55.705Z,18.20
2019-06-15T04:31:25.087Z,18.30
2019-06-15T04:33:54.489Z,18.40
2019-06-15T04:36:23.876Z,18.60
2019-06-15T04:38:53.267Z,18.80
2019-06-15T04:41:23.013Z,19.00
2019-06-15T04:43:52.431Z,19.50
2019-06-15T04:46:21.851Z,20.20
2019-06-15T04:48:51.258Z,20.70
2019-06-15T04:51:20.628Z,21.00
2019-06-15T04:53:50.036Z,21.30
2019-06-15T04:56:19.416Z,21.60
2019-06-15T04:58:48.820Z,21.80
2019-06-15T05:01:18.199Z,22.10
2019-06-15T05:03:47.640Z,22.40
2019-06-15T05:06:17.027Z,22.90
2019-06-15T05:08:46.432Z,23.40
2019-06-15T05:11:15.828Z,23.90
2019-06-15T05:13:45.232Z,24.60
2019-06-15T05:16:14.614Z,25.30
2019-06-15T05:18:44.008Z,25.80
2019-06-15T05:21:13.380Z,26.30
2019-06-15T05:23:42.785Z,27.00
2019-06-15T05:26:12.174Z,27.90
2019-06-15T05:28:41.568Z,28.30
2019-06-15T05:31:10.952Z,28.10
2019-06-15T05:33:40.590Z,28.20
2019-06-15T05:36:09.975Z,28.60
2019-06-15T05:38:39.594Z,29.30
2019-06-15T05:41:08.960Z,30.10
2019-06-15T05:43:38.596Z,30.50
2019-06-15T05:46:07.965Z,30.10
2019-06-15T05:48:37.356Z,29.80
2019-06-15T05:51:06.729Z,29.60
2019-06-15T05:53:36.131Z,29.50
2019-06-15T05:56:05.612Z,29.30
2019-06-15T05:58:35.014Z,29.20
2019-06-15T06:01:04.521Z,29.20
2019-06-15T06:03:33.964Z,29.30
2019-06-15T06:06:03.384Z,29.30
2019-06-15T06:08:32.786Z,29.00
2019-06-15T06:11:02.164Z,28.60
2019-06-15T06:13:31.631Z,28.50
2019-06-15T06:16:01.008Z,28.40
2019-06-15T06:18:30.412Z,28.30
2019-06-15T06:20:59.797Z,27.90
2019-06-15T06:23:29.192Z,27.50
2019-06-15T06:25:58.588Z,27.10
2019-06-15T06:28:27.996Z,27.00
2019-06-15T06:30:57.380Z,26.60
2019-06-15T06:33:26.774Z,27.00
2019-06-15T06:35:56.188Z,27.10
2019-06-15T06:38:25.553Z,26.80
2019-06-15T06:40:54.937Z,26.20
2019-06-15T06:43:24.336Z,25.60
2019-06-15T06:45:53.708Z,25.80
2019-06-15T06:48:23.114Z,25.30
2019-06-15T06:50:52.484Z,24.90
2019-06-15T06:53:21.891Z,24.40
2019-06-15T06:55:51.273Z,24.20
2019-06-15T06:58:20.755Z,23.80
2019-06-15T07:00:50.168Z,23.80
2019-06-15T07:03:19.626Z,23.60
2019-06-15T07:05:49.239Z,23.20
2019-06-15T07:08:18.608Z,23.20
2019-06-15T07:10:48.013Z,24.00
2019-06-15T07:13:17.393Z,24.90
2019-06-15T07:15:46.805Z,25.80
2019-06-15T07:18:16.168Z,26.50
2019-06-15T07:20:45.573Z,26.90
2019-06-15T07:23:14.957Z,27.20
2019-06-15T07:25:44.362Z,26.90
2019-06-15T07:28:13.741Z,26.60
2019-06-15T07:30:43.143Z,26.20
2019-06-15T07:33:12.532Z,26.30
2019-06-15T07:35:41.937Z,26.30
2019-06-15T07:38:11.329Z,26.40
2019-06-15T07:40:40.728Z,26.60
2019-06-15T07:43:10.114Z,26.80
2019-06-15T07:45:39.514Z,27.20
2019-06-15T07:48:08.909Z,27.10
2019-06-15T07:50:38.373Z,26.90
2019-06-15T07:53:07.786Z,26.70
2019-06-15T07:55:37.169Z,26.90
2019-06-15T07:58:06.560Z,26.80
2019-06-15T08:00:35.961Z,26.70
2019-06-15T08:03:05.367Z,26.40
2019-06-15T08:05:34.765Z,26.20
2019-06-15T08:08:04.169Z,25.60
2019-06-15T08:10:33.558Z,25.20
2019-06-15T08:13:02.936Z,25.00
2019-06-15T08:15:32.342Z,24.70
2019-06-15T08:18:01.722Z,24.60
2019-06-15T08:20:33.865Z,24.60
2019-06-15T08:23:03.236Z,25.10
2019-06-15T08:25:32.656Z,25.60
2019-06-15T08:28:02.018Z,26.10
2019-06-15T08:30:38.968Z,26.70
2019-06-15T08:33:08.332Z,27.30
2019-06-15T08:35:37.973Z,28.00
2019-06-15T08:38:07.456Z,27.60
2019-06-15T08:40:36.858Z,26.80
2019-06-15T08:43:06.476Z,26.50
2019-06-15T08:45:35.883Z,26.10
2019-06-15T08:48:05.286Z,26.40
2019-06-15T08:50:34.679Z,26.50
2019-06-15T08:53:04.306Z,26.40
2019-06-15T08:55:33.941Z,26.70
2019-06-15T08:58:04.353Z,26.20
2019-06-15T09:00:34.062Z,25.60
2019-06-15T09:03:03.711Z,25.30
2019-06-15T09:05:33.334Z,25.80
2019-06-15T09:08:02.920Z,26.30
2019-06-15T09:10:32.543Z,26.00
2019-06-15T09:13:02.126Z,25.80
2019-06-15T09:15:51.545Z,25.90
2019-06-15T09:18:21.027Z,26.20
2019-06-15T09:20:51.073Z,26.60
2019-06-15T09:23:20.807Z,27.00
2019-06-15T09:25:50.225Z,27.60
2019-06-15T09:28:19.612Z,27.10
2019-06-15T09:30:49.029Z,27.10
2019-06-15T09:33:18.599Z,27.30
2019-06-15T09:35:48.238Z,27.30
2019-06-15T09:38:17.825Z,27.00
2019-06-15T09:40:47.435Z,27.30
2019-06-15T09:43:17.036Z,26.90
2019-06-15T09:45:46.429Z,26.40
2019-06-15T09:48:16.055Z,25.80
2019-06-15T09:50:45.511Z,25.30
2019-06-15T09:53:14.899Z,25.20
2019-06-15T09:55:44.514Z,25.20
2019-06-15T09:58:14.048Z,25.10
2019-06-15T10:00:43.694Z,25.60
2019-06-15T10:03:13.061Z,26.00
2019-06-15T10:05:42.508Z,25.60
2019-06-15T10:08:11.897Z,25.30
2019-06-15T10:10:41.302Z,24.80
2019-06-15T10:13:10.685Z,24.60
2019-06-15T10:15:40.092Z,24.50
2019-06-15T10:18:09.686Z,24.40
2019-06-15T10:20:39.075Z,24.50
2019-06-15T10:23:08.452Z,24.80
2019-06-15T10:25:38.054Z,24.90
2019-06-15T10:28:07.540Z,24.60
2019-06-15T10:30:36.970Z,24.20
2019-06-15T10:33:06.359Z,23.90
2019-06-15T10:35:35.781Z,23.70
2019-06-15T10:38:10.962Z,23.50
2019-06-15T10:40:40.400Z,23.50
2019-06-15T10:43:09.768Z,23.60
2019-06-15T10:45:39.181Z,23.60
2019-06-15T10:48:08.566Z,23.70
2019-06-15T10:50:38.239Z,23.40
2019-06-15T10:53:07.780Z,23.40
2019-06-15T10:55:37.467Z,23.80
2019-06-15T10:58:06.863Z,24.40
2019-06-15T11:00:36.566Z,24.60
2019-06-15T11:03:06.269Z,24.70
2019-06-15T11:05:37.171Z,24.90
2019-06-15T11:08:06.569Z,24.70
2019-06-15T11:10:45.983Z,24.30
2019-06-15T11:13:15.360Z,24.10
2019-06-15T11:15:44.756Z,24.00
2019-06-15T11:18:14.128Z,23.80
2019-06-15T11:20:43.536Z,23.70
2019-06-15T11:23:12.922Z,23.60
2019-06-15T11:25:42.340Z,23.60
2019-06-15T11:28:11.710Z,23.60
2019-06-15T11:30:41.077Z,23.60
2019-06-15T11:33:10.565Z,23.50
2019-06-15T11:35:39.956Z,23.50
2019-06-15T11:38:09.586Z,23.40
2019-06-15T11:40:38.964Z,23.60
2019-06-15T11:43:08.352Z,24.00
2019-06-15T11:45:37.731Z,24.30
2019-06-15T11:48:07.351Z,24.70
2019-06-15T11:50:36.938Z,24.90
2019-06-15T11:53:06.581Z,25.40
2019-06-15T11:55:39.646Z,25.60
2019-06-15T11:58:07.436Z,25.60
2019-06-15T12:00:39.784Z,25.60
2019-06-15T12:03:09.316Z,25.40
2019-06-15T12:05:38.883Z,25.10
2019-06-15T12:08:08.521Z,25.00
2019-06-15T12:10:37.887Z,25.30
2019-06-15T12:13:07.553Z,26.10
2019-06-15T12:15:37.136Z,26.80
2019-06-15T12:18:06.756Z,27.30
2019-06-15T12:20:38.969Z,27.40
2019-06-15T12:23:07.584Z,26.80
2019-06-15T12:25:37.152Z,26.70
2019-06-15T12:28:06.542Z,26.60
2019-06-15T12:30:47.433Z,26.60
2019-06-15T12:33:11.902Z,27.00
2019-06-15T12:36:36.485Z,27.10
2019-06-15T12:39:07.190Z,26.90
2019-06-15T12:41:36.609Z,27.10
2019-06-15T12:44:06.002Z,26.80
2019-06-15T12:46:35.605Z,26.30
2019-06-15T12:49:11.253Z,26.00
2019-06-15T12:51:40.969Z,25.60
2019-06-15T12:54:10.578Z,25.60
2019-06-15T12:56:39.945Z,25.60
2019-06-15T12:59:09.340Z,26.00
2019-06-15T13:01:38.734Z,26.40
2019-06-15T13:04:08.152Z,26.50
2019-06-15T13:06:37.558Z,26.70
2019-06-15T13:09:08.298Z,26.60
2019-06-15T13:11:37.687Z,26.60
2019-06-15T13:14:07.085Z,26.80
2019-06-15T13:16:39.592Z,26.90
2019-06-15T13:19:07.517Z,27.00
2019-06-15T13:21:36.896Z,26.60
2019-06-15T13:24:06.292Z,26.40
2019-06-15T13:26:35.888Z,26.20
2019-06-15T13:29:05.273Z,26.00
2019-06-15T13:31:34.670Z,26.00
2019-06-15T13:34:04.297Z,26.00
2019-06-15T13:36:33.870Z,25.90
2019-06-15T13:39:03.460Z,25.90
2019-06-15T13:41:33.035Z,25.90
2019-06-15T13:44:02.655Z,26.50
2019-06-15T13:46:32.029Z,26.60
2019-06-15T13:49:01.432Z,26.60
2019-06-15T13:51:31.037Z,26.50
2019-06-15T13:54:00.694Z,26.10
2019-06-15T13:56:30.024Z,26.00
2019-06-15T13:58:59.460Z,26.20
2019-06-15T14:01:33.959Z,26.20
2019-06-15T14:03:59.923Z,26.50
2019-06-15T14:06:29.538Z,26.70
2019-06-15T14:08:58.922Z,26.80
2019-06-15T14:11:28.292Z,26.90
2019-06-15T14:13:57.939Z,27.30
2019-06-15T14:16:27.526Z,27.20
2019-06-15T14:18:57.143Z,27.10
2019-06-15T14:21:26.692Z,27.20
2019-06-15T14:23:56.304Z,27.30
2019-06-15T14:26:25.898Z,27.30
2019-06-15T14:28:55.534Z,27.00
2019-06-15T14:31:24.902Z,26.70
2019-06-15T14:33:54.810Z,26.60
2019-06-15T14:36:24.367Z,26.40
2019-06-15T14:39:54.407Z,26.30
2019-06-15T14:42:23.796Z,26.40
2019-06-15T14:44:53.408Z,26.70
2019-06-15T14:47:23.048Z,26.90
2019-06-15T14:49:52.404Z,26.70
2019-06-15T14:52:21.790Z,26.50
2019-06-15T14:54:51.189Z,26.40
2019-06-15T14:57:20.595Z,26.00
2019-06-15T15:00:00.470Z,25.70
2019-06-15T15:02:21.029Z,25.40
2019-06-15T15:04:50.456Z,25.20
2019-06-15T15:07:19.849Z,24.90
2019-06-15T15:09:50.006Z,24.80
2019-06-15T15:12:19.761Z,24.60
2019-06-15T15:14:49.132Z,24.50
2019-06-15T15:17:18.529Z,24.50
2019-06-15T15:19:47.938Z,24.40
2019-06-15T15:22:17.307Z,24.50
2019-06-15T15:24:46.713Z,24.60
2019-06-15T15:27:16.091Z,24.70
2019-06-15T15:29:46.385Z,24.80
2019-06-15T15:32:25.000Z,24.90
2019-06-15T15:34:46.956Z,25.10
2019-06-15T15:37:16.345Z,25.30
2019-06-15T15:39:46.952Z,25.40
2019-06-15T15:42:16.964Z,25.30
2019-06-15T15:44:47.131Z,25.30
2019-06-15T15:47:17.188Z,25.30
2019-06-15T15:49:47.318Z,25.30
2019-06-15T15:52:17.119Z,25.20
2019-06-15T15:54:47.244Z,25.20
2019-06-15T15:57:17.235Z,25.10
2019-06-15T15:59:47.457Z,25.10
2019-06-15T16:02:17.323Z,25.10
2019-06-15T16:04:46.982Z,25.30
2019-06-15T16:07:16.874Z,25.50
2019-06-15T16:09:46.336Z,25.70
2019-06-15T16:12:15.712Z,25.80
2019-06-15T16:14:45.122Z,25.70
2019-06-15T16:17:14.500Z,25.70
2019-06-15T16:19:44.447Z,25.80
2019-06-15T16:22:13.810Z,25.80
2019-06-15T16:24:43.209Z,25.70
2019-06-15T16:27:12.592Z,25.70
2019-06-15T16:29:42.005Z,25.80
2019-06-15T16:32:11.375Z,25.50
2019-06-15T16:34:40.788Z,25.50
2019-06-15T16:37:10.153Z,25.50
2019-06-15T16:39:39.552Z,25.40
2019-06-15T16:42:08.929Z,25.30
2019-06-15T16:44:38.335Z,25.30
2019-06-15T16:47:07.935Z,25.10
2019-06-15T16:49:37.567Z,24.80
2019-06-15T16:52:06.930Z,24.60
2019-06-15T16:54:36.336Z,24.50
2019-06-15T16:57:05.720Z,24.40
2019-06-15T16:59:36.394Z,24.30
2019-06-15T17:02:06.567Z,24.20
2019-06-15T17:04:36.494Z,24.20
2019-06-15T17:07:07.074Z,24.10
2019-06-15T17:09:36.652Z,23.90
2019-06-15T17:12:06.555Z,23.80
2019-06-15T17:14:36.542Z,23.70
2019-06-15T17:17:06.056Z,23.70
2019-06-15T17:19:36.281Z,23.70
2019-06-15T17:22:14.799Z,23.80
2019-06-15T17:24:37.115Z,23.80
2019-06-15T17:27:06.704Z,23.90
2019-06-15T17:29:36.086Z,24.00
2019-06-15T17:32:06.344Z,24.00
2019-06-15T17:34:36.376Z,24.00
2019-06-15T17:37:06.803Z,24.00
2019-06-15T17:39:37.542Z,23.90
2019-06-15T17:42:07.179Z,23.80
2019-06-15T17:44:37.069Z,23.90
2019-06-15T17:47:07.280Z,23.90
2019-06-15T17:49:38.891Z,24.00
2019-06-15T17:52:08.290Z,24.00
2019-06-15T17:54:37.701Z,24.10
2019-06-15T17:57:07.084Z,23.90
2019-06-15T17:59:36.575Z,23.90
2019-06-15T18:02:06.386Z,23.80
2019-06-15T18:04:37.173Z,23.70
2019-06-15T18:07:06.891Z,23.70
2019-06-15T18:09:36.853Z,23.60
2019-06-15T18:12:06.643Z,23.50
2019-06-15T18:14:36.686Z,23.40
2019-06-15T18:17:07.232Z,23.30
2019-06-15T18:19:36.990Z,23.30
2019-06-15T18:22:07.178Z,23.20
2019-06-15T18:24:37.325Z,23.20
2019-06-15T18:27:09.443Z,23.10
2019-06-15T18:29:38.136Z,23.00
2019-06-15T18:32:07.496Z,23.00
2019-06-15T18:34:36.972Z,23.00
2019-06-15T18:37:07.733Z,22.90
2019-06-15T18:39:37.365Z,22.80
2019-06-15T18:42:07.766Z,22.70
2019-06-15T18:44:37.329Z,22.60
2019-06-15T18:47:07.078Z,22.50
2019-06-15T18:49:36.587Z,22.40
2019-06-15T18:52:06.228Z,22.30
2019-06-15T18:54:36.350Z,22.20
2019-06-15T18:57:07.452Z,22.10
2019-06-15T18:59:36.951Z,21.80
2019-06-15T19:02:06.787Z,21.60
2019-06-15T19:04:36.479Z,21.50
2019-06-15T19:07:06.620Z,21.30
2019-06-15T19:09:36.052Z,21.20
2019-06-15T19:12:07.051Z,21.10
2019-06-15T19:14:36.636Z,20.90
2019-06-15T19:17:06.190Z,20.70
2019-06-15T19:19:37.735Z,20.60
2019-06-15T19:22:06.593Z,20.40
2019-06-15T19:24:36.804Z,20.20
2019-06-15T19:27:08.232Z,20.00
2019-06-15T19:29:37.383Z,19.70
2019-06-15T19:32:08.164Z,19.50
2019-06-15T19:34:44.320Z,19.30
2019-06-15T19:37:08.709Z,19.20
2019-06-15T19:39:38.080Z,19.00
2019-06-15T19:42:07.692Z,19.00
2019-06-15T19:44:37.051Z,18.90
2019-06-15T19:47:07.170Z,18.70
2019-06-15T19:49:36.740Z,18.60
2019-06-15T19:52:06.624Z,18.60
2019-06-15T19:54:36.599Z,18.50
2019-06-15T19:57:06.782Z,18.50
2019-06-15T19:59:36.701Z,18.50
2019-06-15T20:02:06.824Z,18.30
2019-06-15T20:04:37.092Z,18.30
2019-06-15T20:07:06.693Z,18.20
2019-06-15T20:09:37.064Z,18.10
2019-06-15T20:12:17.874Z,18.00
2019-06-15T20:14:37.698Z,18.00
2019-06-15T20:17:07.458Z,17.90
2019-06-15T20:19:37.702Z,17.90
2019-06-15T20:22:07.184Z,17.80
2019-06-15T20:24:36.600Z,17.60
2019-06-15T20:27:10.028Z,17.50
2019-06-15T20:29:37.038Z,17.40
2019-06-15T20:32:06.936Z,17.30
2019-06-15T20:34:37.114Z,17.30
2019-06-15T20:37:06.748Z,17.20
2019-06-15T20:39:36.424Z,17.20
2019-06-15T20:42:07.812Z,17.20
2019-06-15T20:44:36.895Z,17.10
2019-06-15T20:47:06.684Z,17.00
2019-06-15T20:49:36.958Z,16.90
2019-06-15T20:52:07.126Z,16.80
2019-06-15T20:54:36.690Z,16.60
2019-06-15T20:57:06.495Z,16.60
2019-06-15T20:59:36.930Z,16.50
2019-06-15T21:02:06.880Z,16.30
2019-06-15T21:04:36.491Z,16.30
2019-06-15T21:07:06.638Z,16.20
2019-06-15T21:09:36.491Z,16.10
2019-06-15T21:12:06.650Z,16.10
2019-06-15T21:14:36.711Z,16.10
2019-06-15T21:17:06.751Z,16.00
2019-06-15T21:19:36.308Z,15.90
2019-06-15T21:22:06.318Z,15.90
2019-06-15T21:24:37.267Z,15.90
2019-06-15T21:27:06.916Z,15.90
2019-06-15T21:29:37.038Z,15.90
2019-06-15T21:32:06.840Z,15.90
2019-06-15T21:34:36.352Z,15.80
2019-06-15T21:37:06.520Z,15.70
2019-06-15T21:39:36.604Z,15.50
2019-06-15T21:42:06.207Z,15.40
2019-06-15T21:44:36.118Z,15.30
2019-06-15T21:47:06.909Z,15.30
2019-06-15T21:49:36.460Z,15.30
2019-06-15T21:52:07.146Z,15.30
2019-06-15T21:54:36.775Z,15.40
2019-06-15T21:57:07.082Z,15.40
2019-06-15T21:59:37.121Z,15.40
2019-06-15T22:02:07.108Z,15.40
2019-06-15T22:04:36.999Z,15.30
2019-06-15T22:07:06.646Z,15.20
2019-06-15T22:09:36.523Z,15.20
2019-06-15T22:12:06.841Z,15.20
2019-06-15T22:14:36.424Z,15.20
2019-06-15T22:17:06.793Z,15.30
2019-06-15T22:19:36.887Z,15.20
2019-06-15T22:22:07.478Z,15.10
2019-06-15T22:24:37.124Z,15.00
2019-06-15T22:27:06.786Z,14.90
2019-06-15T22:29:36.599Z,14.80
2019-06-15T22:32:06.864Z,14.60
2019-06-15T22:34:36.516Z,14.50
2019-06-15T22:37:06.956Z,14.50
2019-06-15T22:39:37.031Z,14.50
2019-06-15T22:42:07.040Z,14.50
2019-06-15T22:44:37.211Z,14.50
2019-06-15T22:47:06.991Z,14.50
2019-06-15T22:49:36.461Z,14.60
2019-06-15T22:52:06.535Z,14.60
2019-06-15T22:54:37.572Z,14.60
2019-06-15T22:57:07.232Z,14.50
2019-06-15T22:59:36.632Z,14.50
2019-06-15T23:02:07.066Z,14.50
2019-06-15T23:04:37.208Z,14.50
2019-06-15T23:07:06.957Z,14.50
2019-06-15T23:09:36.411Z,14.40
2019-06-15T23:12:07.197Z,14.30
2019-06-15T23:14:37.290Z,14.30
2019-06-15T23:17:07.320Z,14.20
2019-06-15T23:19:36.921Z,14.30
2019-06-15T23:22:07.817Z,14.30
2019-06-15T23:24:37.405Z,14.40
2019-06-15T23:27:06.985Z,14.40
2019-06-15T23:29:36.831Z,14.30
2019-06-15T23:32:06.365Z,14.20
2019-06-15T23:34:35.933Z,14.10
2019-06-15T23:37:07.315Z,14.10
2019-06-15T23:39:36.741Z,14.10
2019-06-15T23:42:06.620Z,14.10
2019-06-15T23:44:36.244Z,14.10
2019-06-15T23:47:05.616Z,14.10
2019-06-15T23:49:36.657Z,14.10
2019-06-15T23:52:06.784Z,14.10
2019-06-15T23:54:37.052Z,14.20
2019-06-15T23:57:06.567Z,14.30
2019-06-15T23:59:37.297Z,14.30
